Terminal Aerodrome Forecast
Issued by NWS Louisville, KY

Home | Current Version | Previous Version | Text Only | Print | Product List | Glossary On
Versions: 1 2 3 4 5 6 7 8 9 10 11 12 13 14 15 16 17 18 19 20 21 22 23 24
000
FTUS43 KLMK 220525
TAFBWG
TAF
KBWG 220525Z 2206/2306 03009KT P6SM OVC014
     FM221100 04007KT 6SM -SHRA BR OVC013
     FM221400 06009KT P6SM OVC021
     FM221600 05008KT 6SM -SHRA BR OVC012
     FM221900 05006KT P6SM OVC011=

USA.gov is the U.S. government's official web portal to all federal, state and local government web resources and services.